sensor_id;sensor_type;location;lat;lon;timestamp;pressure;altitude;pressure_sealevel;temperature;humidity
6435;BME280;3250;42.694;23.278;2023-04-06T00:00:42;94611.63;;;2.32;71.57
6435;BME280;3250;42.694;23.278;2023-04-06T00:03:08;94606.56;;;2.30;72.30
6435;BME280;3250;42.694;23.278;2023-04-06T00:05:33;94601.38;;;2.38;71.60
6435;BME280;3250;42.694;23.278;2023-04-06T00:07:59;94592.09;;;2.44;71.57
6435;BME280;3250;42.694;23.278;2023-04-06T00:10:25;94590.78;;;2.48;70.67
6435;BME280;3250;42.694;23.278;2023-04-06T00:12:51;94591.63;;;2.40;71.19
6435;BME280;3250;42.694;23.278;2023-04-06T00:15:17;94577.97;;;2.46;71.06
6435;BME280;3250;42.694;23.278;2023-04-06T00:17:42;94569.38;;;2.38;71.20
6435;BME280;3250;42.694;23.278;2023-04-06T00:20:08;94575.06;;;2.41;71.73
6435;BME280;3250;42.694;23.278;2023-04-06T00:22:34;94549.13;;;2.25;71.24
6435;BME280;3250;42.694;23.278;2023-04-06T00:25:00;94560.78;;;2.37;71.31
6435;BME280;3250;42.694;23.278;2023-04-06T00:27:26;94566.91;;;2.44;72.17
6435;BME280;3250;42.694;23.278;2023-04-06T00:29:51;94547.03;;;2.28;71.87
6435;BME280;3250;42.694;23.278;2023-04-06T00:32:17;94567.59;;;2.38;71.84
6435;BME280;3250;42.694;23.278;2023-04-06T00:34:42;94560.63;;;2.39;71.87
6435;BME280;3250;42.694;23.278;2023-04-06T00:37:07;94559.66;;;2.40;71.96
6435;BME280;3250;42.694;23.278;2023-04-06T00:39:33;94540.56;;;2.24;72.22
6435;BME280;3250;42.694;23.278;2023-04-06T00:41:58;94561.09;;;2.34;72.45
6435;BME280;3250;42.694;23.278;2023-04-06T00:44:24;94556.72;;;2.35;72.46
6435;BME280;3250;42.694;23.278;2023-04-06T00:46:50;94554.31;;;2.33;72.78
6435;BME280;3250;42.694;23.278;2023-04-06T00:49:15;94552.06;;;2.30;71.38
6435;BME280;3250;42.694;23.278;2023-04-06T00:51:41;94524.97;;;2.16;71.51
6435;BME280;3250;42.694;23.278;2023-04-06T00:54:06;94547.47;;;2.40;72.49
6435;BME280;3250;42.694;23.278;2023-04-06T00:56:32;94553.66;;;2.39;71.75
6435;BME280;3250;42.694;23.278;2023-04-06T00:58:57;94559.81;;;2.38;71.67
6435;BME280;3250;42.694;23.278;2023-04-06T01:01:23;94547.13;;;2.43;72.21
6435;BME280;3250;42.694;23.278;2023-04-06T01:03:49;94548.78;;;2.36;71.29
6435;BME280;3250;42.694;23.278;2023-04-06T01:06:15;94543.78;;;2.26;71.29
6435;BME280;3250;42.694;23.278;2023-04-06T01:08:41;94547.75;;;2.06;71.77
6435;BME280;3250;42.694;23.278;2023-04-06T01:11:06;94543.34;;;2.15;72.47
6435;BME280;3250;42.694;23.278;2023-04-06T01:13:32;94531.00;;;2.09;72.89
6435;BME280;3250;42.694;23.278;2023-04-06T01:15:57;94534.56;;;2.24;71.92
6435;BME280;3250;42.694;23.278;2023-04-06T01:18:27;94536.72;;;2.43;72.49
6435;BME280;3250;42.694;23.278;2023-04-06T01:20:53;94542.06;;;2.50;71.72
6435;BME280;3250;42.694;23.278;2023-04-06T01:23:18;94510.75;;;2.43;71.76
6435;BME280;3250;42.694;23.278;2023-04-06T01:25:44;94535.13;;;2.73;71.52
6435;BME280;3250;42.694;23.278;2023-04-06T01:28:10;94543.25;;;2.70;70.93
6435;BME280;3250;42.694;23.278;2023-04-06T01:30:35;94516.50;;;2.61;71.17
6435;BME280;3250;42.694;23.278;2023-04-06T01:33:01;94529.41;;;2.78;71.70
6435;BME280;3250;42.694;23.278;2023-04-06T01:35:27;94516.47;;;2.70;71.32
6435;BME280;3250;42.694;23.278;2023-04-06T01:37:53;94528.38;;;2.87;70.92
6435;BME280;3250;42.694;23.278;2023-04-06T01:40:18;94533.13;;;2.83;70.25
6435;BME280;3250;42.694;23.278;2023-04-06T01:42:43;94531.28;;;2.92;70.80
6435;BME280;3250;42.694;23.278;2023-04-06T01:45:09;94534.72;;;2.92;70.19
6435;BME280;3250;42.694;23.278;2023-04-06T01:47:35;94527.03;;;2.99;69.98
6435;BME280;3250;42.694;23.278;2023-04-06T01:50:00;94532.88;;;3.01;70.35
6435;BME280;3250;42.694;23.278;2023-04-06T01:52:26;94523.34;;;2.93;70.90
6435;BME280;3250;42.694;23.278;2023-04-06T01:54:51;94526.38;;;2.97;70.44
6435;BME280;3250;42.694;23.278;2023-04-06T01:57:17;94526.69;;;3.02;70.45
6435;BME280;3250;42.694;23.278;2023-04-06T01:59:43;94511.25;;;3.00;69.85
6435;BME280;3250;42.694;23.278;2023-04-06T02:02:08;94514.59;;;3.09;69.97
6435;BME280;3250;42.694;23.278;2023-04-06T02:04:33;94516.03;;;3.12;69.79
6435;BME280;3250;42.694;23.278;2023-04-06T02:06:59;94517.47;;;3.14;70.54
6435;BME280;3250;42.694;23.278;2023-04-06T02:09:24;94524.31;;;3.15;70.44
6435;BME280;3250;42.694;23.278;2023-04-06T02:11:50;94510.97;;;3.18;69.77
6435;BME280;3250;42.694;23.278;2023-04-06T02:14:16;94512.78;;;2.87;69.03
6435;BME280;3250;42.694;23.278;2023-04-06T02:16:41;94486.03;;;2.78;70.87
6435;BME280;3250;42.694;23.278;2023-04-06T02:19:06;94509.31;;;2.94;70.38
6435;BME280;3250;42.694;23.278;2023-04-06T02:21:32;94508.94;;;3.06;70.77
6435;BME280;3250;42.694;23.278;2023-04-06T02:23:57;94511.38;;;3.07;70.72
6435;BME280;3250;42.694;23.278;2023-04-06T02:26:23;94509.56;;;3.08;70.54
6435;BME280;3250;42.694;23.278;2023-04-06T02:28:48;94516.22;;;3.10;70.42
6435;BME280;3250;42.694;23.278;2023-04-06T02:31:14;94518.94;;;3.17;70.43
6435;BME280;3250;42.694;23.278;2023-04-06T02:33:40;94516.84;;;3.12;70.28
6435;BME280;3250;42.694;23.278;2023-04-06T02:36:06;94519.16;;;3.07;69.94
6435;BME280;3250;42.694;23.278;2023-04-06T02:38:31;94506.81;;;3.09;70.38
6435;BME280;3250;42.694;23.278;2023-04-06T02:40:57;94513.84;;;3.00;70.61
6435;BME280;3250;42.694;23.278;2023-04-06T02:43:22;94517.66;;;2.90;70.58
6435;BME280;3250;42.694;23.278;2023-04-06T02:45:48;94514.59;;;2.86;71.05
6435;BME280;3250;42.694;23.278;2023-04-06T02:48:13;94516.97;;;2.96;71.44
6435;BME280;3250;42.694;23.278;2023-04-06T02:50:39;94514.03;;;2.99;70.88
6435;BME280;3250;42.694;23.278;2023-04-06T02:53:04;94515.59;;;3.08;69.72
6435;BME280;3250;42.694;23.278;2023-04-06T02:55:30;94522.63;;;2.99;70.18
6435;BME280;3250;42.694;23.278;2023-04-06T02:57:55;94503.69;;;2.91;70.82
6435;BME280;3250;42.694;23.278;2023-04-06T03:00:21;94510.78;;;2.97;70.80
6435;BME280;3250;42.694;23.278;2023-04-06T03:02:46;94512.94;;;2.93;70.83
6435;BME280;3250;42.694;23.278;2023-04-06T03:05:11;94510.44;;;3.00;71.12
6435;BME280;3250;42.694;23.278;2023-04-06T03:07:37;94517.22;;;3.09;70.34
6435;BME280;3250;42.694;23.278;2023-04-06T03:10:03;94494.19;;;2.98;70.02
6435;BME280;3250;42.694;23.278;2023-04-06T03:12:29;94511.84;;;3.11;70.53
6435;BME280;3250;42.694;23.278;2023-04-06T03:14:54;94514.25;;;3.12;70.80
6435;BME280;3250;42.694;23.278;2023-04-06T03:17:20;94487.03;;;3.00;70.71
6435;BME280;3250;42.694;23.278;2023-04-06T03:19:45;94519.81;;;3.09;70.78
6435;BME280;3250;42.694;23.278;2023-04-06T03:22:10;94460.47;;;2.90;70.44
6435;BME280;3250;42.694;23.278;2023-04-06T03:24:36;94504.78;;;3.19;69.97
6435;BME280;3250;42.694;23.278;2023-04-06T03:27:01;94507.66;;;3.24;70.13
6435;BME280;3250;42.694;23.278;2023-04-06T03:29:27;94512.88;;;3.24;69.58
6435;BME280;3250;42.694;23.278;2023-04-06T03:31:52;94480.91;;;3.16;69.32
6435;BME280;3250;42.694;23.278;2023-04-06T03:34:18;94510.28;;;3.01;69.09
6435;BME280;3250;42.694;23.278;2023-04-06T03:36:43;94506.22;;;2.99;69.71
6435;BME280;3250;42.694;23.278;2023-04-06T03:39:08;94506.06;;;3.00;69.80
6435;BME280;3250;42.694;23.278;2023-04-06T03:41:34;94507.25;;;2.90;69.46
6435;BME280;3250;42.694;23.278;2023-04-06T03:43:59;94506.78;;;2.86;69.58
6435;BME280;3250;42.694;23.278;2023-04-06T03:46:25;94506.66;;;2.80;69.58
6435;BME280;3250;42.694;23.278;2023-04-06T03:48:50;94498.06;;;2.79;70.25
6435;BME280;3250;42.694;23.278;2023-04-06T03:51:16;94504.53;;;2.83;70.51
6435;BME280;3250;42.694;23.278;2023-04-06T03:53:41;94491.72;;;2.82;70.41
6435;BME280;3250;42.694;23.278;2023-04-06T03:56:07;94503.91;;;3.04;70.41
6435;BME280;3250;42.694;23.278;2023-04-06T03:58:33;94507.63;;;3.10;69.70
6435;BME280;3250;42.694;23.278;2023-04-06T04:00:58;94513.75;;;3.17;69.83
6435;BME280;3250;42.694;23.278;2023-04-06T04:03:24;94501.72;;;3.16;69.43
6435;BME280;3250;42.694;23.278;2023-04-06T04:05:52;94477.47;;;3.00;69.74
6435;BME280;3250;42.694;23.278;2023-04-06T04:08:17;94511.13;;;3.17;70.25
6435;BME280;3250;42.694;23.278;2023-04-06T04:10:43;94507.56;;;3.18;71.01
6435;BME280;3250;42.694;23.278;2023-04-06T04:13:08;94480.41;;;2.97;71.98
6435;BME280;3250;42.694;23.278;2023-04-06T04:15:34;94461.19;;;2.84;72.55
6435;BME280;3250;42.694;23.278;2023-04-06T04:17:59;94485.09;;;3.02;73.07
6435;BME280;3250;42.694;23.278;2023-04-06T04:20:25;94498.94;;;3.17;73.57
6435;BME280;3250;42.694;23.278;2023-04-06T04:22:50;94497.16;;;3.18;73.29
6435;BME280;3250;42.694;23.278;2023-04-06T04:25:15;94481.63;;;3.10;72.68
6435;BME280;3250;42.694;23.278;2023-04-06T04:27:41;94506.84;;;3.24;70.81
6435;BME280;3250;42.694;23.278;2023-04-06T04:30:07;94507.31;;;3.27;69.75
6435;BME280;3250;42.694;23.278;2023-04-06T04:32:32;94510.38;;;3.08;69.04
6435;BME280;3250;42.694;23.278;2023-04-06T04:34:58;94496.03;;;3.12;70.71
6435;BME280;3250;42.694;23.278;2023-04-06T04:37:23;94508.53;;;3.17;69.83
6435;BME280;3250;42.694;23.278;2023-04-06T04:39:48;94504.59;;;3.21;69.58
6435;BME280;3250;42.694;23.278;2023-04-06T04:42:14;94494.44;;;3.11;69.79
6435;BME280;3250;42.694;23.278;2023-04-06T04:44:40;94519.50;;;3.27;70.14
6435;BME280;3250;42.694;23.278;2023-04-06T04:47:06;94511.25;;;3.23;70.05
6435;BME280;3250;42.694;23.278;2023-04-06T04:49:31;94509.78;;;3.21;70.62
6435;BME280;3250;42.694;23.278;2023-04-06T04:51:57;94499.38;;;3.21;69.89
6435;BME280;3250;42.694;23.278;2023-04-06T04:54:22;94472.03;;;3.10;70.70
6435;BME280;3250;42.694;23.278;2023-04-06T04:56:48;94499.00;;;3.47;70.37
6435;BME280;3250;42.694;23.278;2023-04-06T04:59:13;94509.81;;;3.58;70.53
6435;BME280;3250;42.694;23.278;2023-04-06T05:01:38;94513.63;;;3.70;70.68
6435;BME280;3250;42.694;23.278;2023-04-06T05:04:04;94507.06;;;3.74;70.04
6435;BME280;3250;42.694;23.278;2023-04-06T05:06:30;94503.38;;;3.69;69.80
6435;BME280;3250;42.694;23.278;2023-04-06T05:08:56;94510.38;;;3.68;69.80
6435;BME280;3250;42.694;23.278;2023-04-06T05:11:21;94508.41;;;3.70;69.30
6435;BME280;3250;42.694;23.278;2023-04-06T05:13:47;94491.53;;;3.66;69.53
6435;BME280;3250;42.694;23.278;2023-04-06T05:16:12;94508.31;;;3.78;69.31
6435;BME280;3250;42.694;23.278;2023-04-06T05:18:38;94510.38;;;3.83;69.88
6435;BME280;3250;42.694;23.278;2023-04-06T05:21:03;94515.41;;;3.85;69.12
6435;BME280;3250;42.694;23.278;2023-04-06T05:23:29;94509.41;;;3.84;69.56
6435;BME280;3250;42.694;23.278;2023-04-06T05:25:54;94513.97;;;3.82;69.05
6435;BME280;3250;42.694;23.278;2023-04-06T05:28:20;94505.19;;;3.83;69.39
6435;BME280;3250;42.694;23.278;2023-04-06T05:30:45;94511.09;;;3.77;70.07
6435;BME280;3250;42.694;23.278;2023-04-06T05:33:13;94508.16;;;3.80;69.98
6435;BME280;3250;42.694;23.278;2023-04-06T05:35:39;94491.34;;;3.68;70.05
6435;BME280;3250;42.694;23.278;2023-04-06T05:38:08;94504.28;;;3.76;69.93
6435;BME280;3250;42.694;23.278;2023-04-06T05:40:34;94502.66;;;3.75;70.29
6435;BME280;3250;42.694;23.278;2023-04-06T05:42:59;94482.63;;;3.61;69.95
6435;BME280;3250;42.694;23.278;2023-04-06T05:45:25;94494.28;;;3.65;70.56
6435;BME280;3250;42.694;23.278;2023-04-06T05:47:51;94493.03;;;3.61;70.92
6435;BME280;3250;42.694;23.278;2023-04-06T05:50:16;94501.75;;;3.68;71.25
6435;BME280;3250;42.694;23.278;2023-04-06T05:52:42;94501.41;;;3.71;71.54
6435;BME280;3250;42.694;23.278;2023-04-06T05:55:09;94503.28;;;3.77;71.21
6435;BME280;3250;42.694;23.278;2023-04-06T05:57:34;94504.09;;;3.77;71.74
6435;BME280;3250;42.694;23.278;2023-04-06T06:00:00;94491.91;;;3.78;71.49
6435;BME280;3250;42.694;23.278;2023-04-06T06:02:25;94487.94;;;3.82;72.00
6435;BME280;3250;42.694;23.278;2023-04-06T06:04:51;94491.91;;;3.93;71.84
6435;BME280;3250;42.694;23.278;2023-04-06T06:07:17;94478.00;;;3.86;71.32
6435;BME280;3250;42.694;23.278;2023-04-06T06:09:42;94487.41;;;3.87;71.65
6435;BME280;3250;42.694;23.278;2023-04-06T06:12:08;94470.34;;;3.84;71.78
6435;BME280;3250;42.694;23.278;2023-04-06T06:14:34;94493.53;;;3.94;71.83
6435;BME280;3250;42.694;23.278;2023-04-06T06:16:59;94484.00;;;3.86;71.83
6435;BME280;3250;42.694;23.278;2023-04-06T06:19:25;94480.69;;;3.92;71.78
6435;BME280;3250;42.694;23.278;2023-04-06T06:21:50;94471.28;;;4.06;71.59
6435;BME280;3250;42.694;23.278;2023-04-06T06:24:16;94488.72;;;4.41;71.31
6435;BME280;3250;42.694;23.278;2023-04-06T06:26:41;94483.41;;;4.64;70.94
6435;BME280;3250;42.694;23.278;2023-04-06T06:29:08;94488.63;;;4.85;69.87
6435;BME280;3250;42.694;23.278;2023-04-06T06:31:33;94486.47;;;4.89;69.22
6435;BME280;3250;42.694;23.278;2023-04-06T06:33:59;94468.22;;;4.89;68.67
6435;BME280;3250;42.694;23.278;2023-04-06T06:36:25;94472.31;;;4.98;69.00
6435;BME280;3250;42.694;23.278;2023-04-06T06:38:50;94489.47;;;5.07;69.29
6435;BME280;3250;42.694;23.278;2023-04-06T06:41:17;94496.72;;;5.12;68.59
6435;BME280;3250;42.694;23.278;2023-04-06T06:43:42;94489.34;;;5.15;69.11
6435;BME280;3250;42.694;23.278;2023-04-06T06:46:07;94492.44;;;5.25;68.12
6435;BME280;3250;42.694;23.278;2023-04-06T06:48:33;94473.72;;;5.43;68.33
6435;BME280;3250;42.694;23.278;2023-04-06T06:50:58;94496.44;;;5.98;65.97
6435;BME280;3250;42.694;23.278;2023-04-06T06:53:24;94498.22;;;6.26;66.22
6435;BME280;3250;42.694;23.278;2023-04-06T06:55:50;94512.66;;;6.56;65.55
6435;BME280;3250;42.694;23.278;2023-04-06T06:58:18;94500.56;;;7.16;65.34
6435;BME280;3250;42.694;23.278;2023-04-06T07:00:43;94501.59;;;7.87;62.06
6435;BME280;3250;42.694;23.278;2023-04-06T07:03:09;94507.63;;;8.21;59.64
6435;BME280;3250;42.694;23.278;2023-04-06T07:05:34;94499.53;;;8.22;60.69
6435;BME280;3250;42.694;23.278;2023-04-06T07:08:00;94514.06;;;8.25;59.55
6435;BME280;3250;42.694;23.278;2023-04-06T07:10:26;94514.09;;;8.12;59.39
6435;BME280;3250;42.694;23.278;2023-04-06T07:12:51;94514.91;;;7.92;59.92
6435;BME280;3250;42.694;23.278;2023-04-06T07:15:17;94510.72;;;7.78;59.84
6435;BME280;3250;42.694;23.278;2023-04-06T07:17:42;94512.09;;;7.48;60.19
6435;BME280;3250;42.694;23.278;2023-04-06T07:20:11;94508.44;;;7.29;60.87
6435;BME280;3250;42.694;23.278;2023-04-06T07:22:38;94499.97;;;7.20;62.60
6435;BME280;3250;42.694;23.278;2023-04-06T07:25:03;94509.22;;;7.16;62.27
6435;BME280;3250;42.694;23.278;2023-04-06T07:27:29;94484.44;;;7.12;61.99
6435;BME280;3250;42.694;23.278;2023-04-06T07:29:54;94513.09;;;7.34;61.82
6435;BME280;3250;42.694;23.278;2023-04-06T07:32:20;94509.25;;;7.30;62.18
6435;BME280;3250;42.694;23.278;2023-04-06T07:34:45;94505.19;;;7.20;60.84
6435;BME280;3250;42.694;23.278;2023-04-06T07:37:12;94507.38;;;7.10;62.14
6435;BME280;3250;42.694;23.278;2023-04-06T07:39:37;94506.38;;;7.05;61.13
6435;BME280;3250;42.694;23.278;2023-04-06T07:42:02;94506.00;;;7.08;62.18
6435;BME280;3250;42.694;23.278;2023-04-06T07:44:28;94500.75;;;7.08;61.43
6435;BME280;3250;42.694;23.278;2023-04-06T07:46:53;94486.44;;;6.97;62.16
6435;BME280;3250;42.694;23.278;2023-04-06T07:49:19;94502.41;;;7.48;60.96
6435;BME280;3250;42.694;23.278;2023-04-06T07:51:46;94496.59;;;7.86;60.89
6435;BME280;3250;42.694;23.278;2023-04-06T07:54:11;94512.25;;;8.32;59.53
6435;BME280;3250;42.694;23.278;2023-04-06T07:56:36;94507.19;;;8.50;58.75
6435;BME280;3250;42.694;23.278;2023-04-06T07:59:02;94507.31;;;8.68;58.56
6435;BME280;3250;42.694;23.278;2023-04-06T08:01:28;94503.63;;;8.83;57.07
6435;BME280;3250;42.694;23.278;2023-04-06T08:03:55;94507.47;;;8.87;59.13
6435;BME280;3250;42.694;23.278;2023-04-06T08:06:21;94512.63;;;9.06;57.48
6435;BME280;3250;42.694;23.278;2023-04-06T08:08:46;94507.94;;;9.15;57.82
6435;BME280;3250;42.694;23.278;2023-04-06T08:11:12;94487.72;;;9.16;56.83
6435;BME280;3250;42.694;23.278;2023-04-06T08:13:37;94487.41;;;8.99;56.47
6435;BME280;3250;42.694;23.278;2023-04-06T08:16:03;94504.44;;;9.21;57.60
6435;BME280;3250;42.694;23.278;2023-04-06T08:18:28;94491.47;;;9.33;55.72
6435;BME280;3250;42.694;23.278;2023-04-06T08:20:55;94470.38;;;9.15;56.07
6435;BME280;3250;42.694;23.278;2023-04-06T08:23:22;94504.25;;;9.54;56.17
6435;BME280;3250;42.694;23.278;2023-04-06T08:25:47;94507.09;;;9.77;55.41
6435;BME280;3250;42.694;23.278;2023-04-06T08:28:13;94496.84;;;9.69;54.20
6435;BME280;3250;42.694;23.278;2023-04-06T08:30:42;94509.19;;;9.69;54.98
6435;BME280;3250;42.694;23.278;2023-04-06T08:33:08;94506.88;;;9.54;54.16
6435;BME280;3250;42.694;23.278;2023-04-06T08:35:34;94511.66;;;9.32;54.75
6435;BME280;3250;42.694;23.278;2023-04-06T08:37:59;94516.16;;;9.25;55.87
6435;BME280;3250;42.694;23.278;2023-04-06T08:40:25;94498.34;;;9.27;55.32
6435;BME280;3250;42.694;23.278;2023-04-06T08:42:59;94503.94;;;9.37;55.55
6435;BME280;3250;42.694;23.278;2023-04-06T08:45:29;94502.38;;;9.30;54.75
6435;BME280;3250;42.694;23.278;2023-04-06T08:47:56;94509.97;;;9.44;55.96
6435;BME280;3250;42.694;23.278;2023-04-06T08:50:24;94509.88;;;9.58;54.65
6435;BME280;3250;42.694;23.278;2023-04-06T08:52:49;94500.94;;;9.65;54.70
6435;BME280;3250;42.694;23.278;2023-04-06T08:55:15;94513.88;;;9.60;52.98
6435;BME280;3250;42.694;23.278;2023-04-06T08:57:43;94494.75;;;9.53;55.24
6435;BME280;3250;42.694;23.278;2023-04-06T09:00:11;94499.19;;;9.84;54.27
6435;BME280;3250;42.694;23.278;2023-04-06T09:02:42;94507.41;;;10.12;54.73
6435;BME280;3250;42.694;23.278;2023-04-06T09:05:08;94505.22;;;10.34;53.01
6435;BME280;3250;42.694;23.278;2023-04-06T09:07:36;94505.47;;;10.69;53.55
6435;BME280;3250;42.694;23.278;2023-04-06T09:10:03;94476.78;;;10.79;53.33
6435;BME280;3250;42.694;23.278;2023-04-06T09:12:30;94487.88;;;10.81;50.99
6435;BME280;3250;42.694;23.278;2023-04-06T09:14:57;94493.25;;;11.23;53.03
6435;BME280;3250;42.694;23.278;2023-04-06T09:17:25;94481.44;;;11.25;52.95
6435;BME280;3250;42.694;23.278;2023-04-06T09:19:51;94488.31;;;11.26;50.90
6435;BME280;3250;42.694;23.278;2023-04-06T09:22:17;94485.19;;;11.18;51.05
6435;BME280;3250;42.694;23.278;2023-04-06T09:24:47;94488.47;;;10.83;50.62
6435;BME280;3250;42.694;23.278;2023-04-06T09:27:14;94487.81;;;10.33;50.95
6435;BME280;3250;42.694;23.278;2023-04-06T09:29:44;94455.50;;;9.58;52.51
6435;BME280;3250;42.694;23.278;2023-04-06T09:32:10;94488.47;;;9.54;52.93
6435;BME280;3250;42.694;23.278;2023-04-06T09:34:39;94486.22;;;9.33;53.15
6435;BME280;3250;42.694;23.278;2023-04-06T09:37:20;94474.56;;;9.22;53.29
6435;BME280;3250;42.694;23.278;2023-04-06T09:39:46;94462.78;;;9.31;56.32
6435;BME280;3250;42.694;23.278;2023-04-06T09:42:23;94478.78;;;9.55;52.97
6435;BME280;3250;42.694;23.278;2023-04-06T09:44:49;94466.22;;;9.57;53.63
6435;BME280;3250;42.694;23.278;2023-04-06T09:47:15;94479.28;;;9.38;53.15
6435;BME280;3250;42.694;23.278;2023-04-06T09:49:43;94468.06;;;9.56;54.81
6435;BME280;3250;42.694;23.278;2023-04-06T09:52:11;94476.75;;;9.57;53.37
6435;BME280;3250;42.694;23.278;2023-04-06T09:54:37;94477.41;;;9.77;53.43
6435;BME280;3250;42.694;23.278;2023-04-06T09:57:25;94476.09;;;9.86;54.81
6435;BME280;3250;42.694;23.278;2023-04-06T10:00:06;94482.13;;;9.93;53.39
6435;BME280;3250;42.694;23.278;2023-04-06T10:02:51;94475.31;;;9.86;52.20
6435;BME280;3250;42.694;23.278;2023-04-06T10:07:54;94483.00;;;9.80;52.64
6435;BME280;3250;42.694;23.278;2023-04-06T10:10:21;94466.38;;;9.87;52.84
6435;BME280;3250;42.694;23.278;2023-04-06T10:12:47;94478.16;;;9.84;54.45
6435;BME280;3250;42.694;23.278;2023-04-06T10:15:13;94460.16;;;9.81;52.87
6435;BME280;3250;42.694;23.278;2023-04-06T10:17:39;94469.25;;;9.85;54.08
6435;BME280;3250;42.694;23.278;2023-04-06T10:22:57;94463.75;;;9.87;52.94
6435;BME280;3250;42.694;23.278;2023-04-06T10:25:29;94483.66;;;10.01;53.09
6435;BME280;3250;42.694;23.278;2023-04-06T10:28:00;94466.94;;;10.13;52.02
6435;BME280;3250;42.694;23.278;2023-04-06T10:30:26;94458.84;;;10.15;53.29
6435;BME280;3250;42.694;23.278;2023-04-06T10:32:53;94458.06;;;10.33;53.65
6435;BME280;3250;42.694;23.278;2023-04-06T10:35:18;94450.56;;;10.36;54.29
6435;BME280;3250;42.694;23.278;2023-04-06T10:38:00;94457.06;;;10.34;52.50
6435;BME280;3250;42.694;23.278;2023-04-06T10:40:26;94458.81;;;10.40;52.52
6435;BME280;3250;42.694;23.278;2023-04-06T10:42:53;94436.78;;;10.16;50.56
6435;BME280;3250;42.694;23.278;2023-04-06T10:45:20;94444.47;;;10.17;51.90
6435;BME280;3250;42.694;23.278;2023-04-06T10:47:46;94440.63;;;10.20;53.47
6435;BME280;3250;42.694;23.278;2023-04-06T10:50:14;94447.72;;;10.38;52.89
6435;BME280;3250;42.694;23.278;2023-04-06T10:52:41;94436.19;;;10.14;49.25
6435;BME280;3250;42.694;23.278;2023-04-06T10:55:08;94458.16;;;10.01;52.08
6435;BME280;3250;42.694;23.278;2023-04-06T10:57:37;94449.88;;;9.79;51.75
6435;BME280;3250;42.694;23.278;2023-04-06T11:00:05;94442.69;;;9.68;52.71
6435;BME280;3250;42.694;23.278;2023-04-06T11:02:31;94450.00;;;9.66;53.08
6435;BME280;3250;42.694;23.278;2023-04-06T11:04:57;94452.16;;;9.69;51.40
6435;BME280;3250;42.694;23.278;2023-04-06T11:07:24;94450.31;;;9.76;52.27
6435;BME280;3250;42.694;23.278;2023-04-06T11:09:51;94418.00;;;9.69;52.33
6435;BME280;3250;42.694;23.278;2023-04-06T11:12:24;94415.34;;;9.76;53.16
6435;BME280;3250;42.694;23.278;2023-04-06T11:15:01;94431.28;;;9.99;53.30
6435;BME280;3250;42.694;23.278;2023-04-06T11:17:32;94409.81;;;9.84;52.56
6435;BME280;3250;42.694;23.278;2023-04-06T11:19:58;94433.50;;;9.77;51.84
6435;BME280;3250;42.694;23.278;2023-04-06T11:22:25;94422.09;;;9.65;52.29
6435;BME280;3250;42.694;23.278;2023-04-06T11:24:50;94426.59;;;9.58;51.37
6435;BME280;3250;42.694;23.278;2023-04-06T11:27:17;94397.31;;;9.30;51.95
6435;BME280;3250;42.694;23.278;2023-04-06T11:29:43;94427.50;;;9.45;53.08
6435;BME280;3250;42.694;23.278;2023-04-06T11:32:09;94423.00;;;9.53;52.09
6435;BME280;3250;42.694;23.278;2023-04-06T11:34:36;94414.44;;;9.64;53.25
6435;BME280;3250;42.694;23.278;2023-04-06T11:37:07;94413.69;;;9.57;51.76
6435;BME280;3250;42.694;23.278;2023-04-06T11:42:21;94406.34;;;9.40;52.14
6435;BME280;3250;42.694;23.278;2023-04-06T11:44:51;94418.75;;;9.52;50.94
6435;BME280;3250;42.694;23.278;2023-04-06T11:47:18;94415.44;;;9.38;51.56
6435;BME280;3250;42.694;23.278;2023-04-06T11:49:44;94393.78;;;9.18;52.34
6435;BME280;3250;42.694;23.278;2023-04-06T11:52:23;94406.53;;;9.14;51.96
6435;BME280;3250;42.694;23.278;2023-04-06T11:54:51;94408.78;;;9.11;52.31
6435;BME280;3250;42.694;23.278;2023-04-06T11:57:18;94393.34;;;8.96;53.50
6435;BME280;3250;42.694;23.278;2023-04-06T11:59:44;94402.44;;;8.93;52.97
6435;BME280;3250;42.694;23.278;2023-04-06T12:02:10;94404.78;;;8.70;53.79
6435;BME280;3250;42.694;23.278;2023-04-06T12:04:36;94399.53;;;8.70;55.71
6435;BME280;3250;42.694;23.278;2023-04-06T12:07:02;94409.44;;;8.68;54.93
6435;BME280;3250;42.694;23.278;2023-04-06T12:09:28;94401.78;;;8.66;54.86
6435;BME280;3250;42.694;23.278;2023-04-06T12:11:54;94406.25;;;8.59;53.64
6435;BME280;3250;42.694;23.278;2023-04-06T12:14:21;94399.94;;;8.67;54.05
6435;BME280;3250;42.694;23.278;2023-04-06T12:16:47;94394.91;;;8.72;55.00
6435;BME280;3250;42.694;23.278;2023-04-06T12:19:12;94395.91;;;8.71;53.53
6435;BME280;3250;42.694;23.278;2023-04-06T12:21:38;94373.25;;;8.45;53.70
6435;BME280;3250;42.694;23.278;2023-04-06T12:24:04;94389.72;;;8.59;54.62
6435;BME280;3250;42.694;23.278;2023-04-06T12:26:31;94381.00;;;8.65;54.53
6435;BME280;3250;42.694;23.278;2023-04-06T12:28:58;94388.84;;;8.72;54.22
6435;BME280;3250;42.694;23.278;2023-04-06T12:31:30;94397.38;;;8.60;53.53
6435;BME280;3250;42.694;23.278;2023-04-06T12:33:55;94387.72;;;8.54;54.14
6435;BME280;3250;42.694;23.278;2023-04-06T12:36:20;94379.09;;;8.47;52.42
6435;BME280;3250;42.694;23.278;2023-04-06T12:38:49;94389.75;;;8.52;53.76
6435;BME280;3250;42.694;23.278;2023-04-06T12:41:16;94393.81;;;8.42;53.93
6435;BME280;3250;42.694;23.278;2023-04-06T12:43:42;94388.22;;;8.31;54.05
6435;BME280;3250;42.694;23.278;2023-04-06T12:46:08;94392.03;;;8.36;55.19
6435;BME280;3250;42.694;23.278;2023-04-06T12:48:34;94363.00;;;8.24;53.13
6435;BME280;3250;42.694;23.278;2023-04-06T12:51:05;94383.56;;;8.33;53.91
6435;BME280;3250;42.694;23.278;2023-04-06T12:53:32;94378.94;;;8.29;54.84
6435;BME280;3250;42.694;23.278;2023-04-06T12:55:58;94381.34;;;8.37;55.36
6435;BME280;3250;42.694;23.278;2023-04-06T12:58:24;94353.31;;;8.31;54.21
6435;BME280;3250;42.694;23.278;2023-04-06T13:00:51;94383.28;;;8.48;53.32
6435;BME280;3250;42.694;23.278;2023-04-06T13:03:18;94358.31;;;8.39;53.69
6435;BME280;3250;42.694;23.278;2023-04-06T13:05:45;94365.75;;;8.49;54.28
6435;BME280;3250;42.694;23.278;2023-04-06T13:08:11;94363.38;;;8.41;54.03
6435;BME280;3250;42.694;23.278;2023-04-06T13:10:37;94374.91;;;8.33;53.77
6435;BME280;3250;42.694;23.278;2023-04-06T13:13:04;94359.69;;;8.04;53.36
6435;BME280;3250;42.694;23.278;2023-04-06T13:15:31;94361.25;;;8.11;54.40
6435;BME280;3250;42.694;23.278;2023-04-06T13:17:57;94364.09;;;8.10;53.80
6435;BME280;3250;42.694;23.278;2023-04-06T13:20:22;94349.00;;;7.99;54.23
6435;BME280;3250;42.694;23.278;2023-04-06T13:22:49;94365.94;;;8.03;54.57